Time;durP1;ratioP1;P1;durP2;ratioP2;P2;SDS_P1;SDS_P2;PMS_P1;PMS_P2;Temp;Humidity;BMP_temperature;BMP_pressure;BME280_temperature;BME280_humidity;BME280_pressure;Samples;Min_cycle;Max_cycle;Signal;HPM_P1;HPM_P2
2023/02/24 00:00:49;;;;;;;6.53;2.17;;;16.30;64.90;;;;;;5084862;28;20311;-46
2023/02/24 00:03:18;;;;;;;6.67;2.13;;;16.30;64.90;;;;;;5086966;28;20213;-46
2023/02/24 00:05:48;;;;;;;2.97;1.83;;;16.30;64.90;;;;;;5090180;28;20731;-46
2023/02/24 00:08:18;;;;;;;4.93;2.10;;;16.30;64.90;;;;;;5091367;28;20568;-47
2023/02/24 00:10:46;;;;;;;4.17;1.83;;;16.30;64.80;;;;;;5087806;28;20197;-47
2023/02/24 00:13:21;;;;;;;4.60;1.63;;;16.30;64.90;;;;;;5084963;28;20219;-46
2023/02/24 00:16:03;;;;;;;3.37;1.30;;;16.30;64.90;;;;;;5087305;28;20181;-46
2023/02/24 00:18:41;;;;;;;3.93;1.77;;;16.30;64.90;;;;;;5078993;28;20213;-46
2023/02/24 00:21:15;;;;;;;4.70;2.37;;;16.30;64.90;;;;;;5087667;28;20201;-47
2023/02/24 00:23:46;;;;;;;5.80;1.90;;;16.30;64.90;;;;;;5070254;28;20216;-46
2023/02/24 00:26:19;;;;;;;4.03;2.07;;;16.30;64.90;;;;;;5066536;28;20212;-47
2023/02/24 00:28:51;;;;;;;6.70;1.70;;;16.30;64.90;;;;;;5068037;28;20658;-46
2023/02/24 00:31:22;;;;;;;3.77;1.47;;;16.30;64.80;;;;;;5067023;28;20574;-47
2023/02/24 00:33:59;;;;;;;7.23;1.80;;;16.30;64.80;;;;;;5058275;28;20186;-46
2023/02/24 00:36:32;;;;;;;3.57;1.90;;;16.20;64.70;;;;;;5058556;28;20218;-46
2023/02/24 00:39:10;;;;;;;5.70;1.90;;;16.30;64.90;;;;;;5040496;28;20210;-46
2023/02/24 00:41:57;;;;;;;4.13;2.23;;;16.20;64.80;;;;;;5033690;28;20293;-46
2023/02/24 00:44:28;;;;;;;5.33;2.57;;;16.20;64.70;;;;;;5063568;28;20204;-46
2023/02/24 00:47:01;;;;;;;4.77;2.00;;;16.20;64.80;;;;;;5055123;28;20656;-46
2023/02/24 00:49:42;;;;;;;3.37;1.50;;;16.20;64.70;;;;;;5046481;28;20879;-46
2023/02/24 00:52:21;;;;;;;4.60;2.07;;;16.20;64.80;;;;;;5045702;28;20237;-47
2023/02/24 00:54:52;;;;;;;4.37;1.43;;;16.20;64.70;;;;;;5056928;28;20634;-47
2023/02/24 00:57:22;;;;;;;5.20;1.80;;;16.20;64.80;;;;;;5069312;28;20193;-46
2023/02/24 00:59:57;;;;;;;3.57;1.60;;;16.20;64.70;;;;;;5057768;28;20344;-46
2023/02/24 01:02:28;;;;;;;4.93;2.20;;;16.20;64.70;;;;;;5063447;28;20216;-46
2023/02/24 01:04:57;;;;;;;3.27;1.40;;;16.20;64.80;;;;;;5059949;28;20204;-47
2023/02/24 01:07:28;;;;;;;5.83;2.03;;;16.20;64.70;;;;;;5052409;28;20213;-47
2023/02/24 01:09:59;;;;;;;3.73;1.50;;;16.10;64.70;;;;;;5050863;28;20640;-46
2023/02/24 01:12:52;;;;;;;3.23;1.80;;;16.10;64.70;;;;;;5053402;28;20249;-47
2023/02/24 01:15:26;;;;;;;3.83;1.83;;;16.10;64.70;;;;;;5070096;28;20301;-47
2023/02/24 01:17:55;;;;;;;5.50;2.00;;;16.10;64.70;;;;;;5070376;28;20334;-46
2023/02/24 01:20:29;;;;;;;4.63;2.07;;;16.10;64.60;;;;;;5069098;28;20713;-47
2023/02/24 01:23:02;;;;;;;4.17;1.70;;;16.10;64.60;;;;;;5069923;28;20194;-46
2023/02/24 01:25:31;;;;;;;3.50;1.70;;;16.10;64.60;;;;;;5066293;28;20544;-46
2023/02/24 01:28:02;;;;;;;4.70;1.97;;;16.10;64.50;;;;;;5068873;28;20189;-47
2023/02/24 01:30:31;;;;;;;4.40;2.00;;;16.10;64.50;;;;;;5077928;28;20271;-47
2023/02/24 01:33:02;;;;;;;3.83;1.57;;;16.10;64.50;;;;;;5090027;28;20189;-46
2023/02/24 01:35:34;;;;;;;4.73;1.70;;;16.10;64.50;;;;;;5090205;28;20205;-48
2023/02/24 01:38:03;;;;;;;4.60;1.83;;;16.10;64.50;;;;;;5083790;28;20215;-46
2023/02/24 01:40:53;;;;;;;3.93;1.80;;;16.10;64.40;;;;;;5084911;28;20201;-47
2023/02/24 01:43:24;;;;;;;3.30;2.00;;;16.10;64.40;;;;;;5054838;28;20208;-46
2023/02/24 01:45:53;;;;;;;4.50;1.70;;;16.10;64.40;;;;;;5088219;28;20233;-46
2023/02/24 01:48:43;;;;;;;5.10;2.00;;;16.10;64.30;;;;;;5065262;28;20220;-47
2023/02/24 01:51:19;;;;;;;5.03;1.90;;;16.10;64.40;;;;;;5064047;28;20224;-46
2023/02/24 01:53:50;;;;;;;4.47;1.90;;;16.10;64.40;;;;;;5083006;28;20759;-46
2023/02/24 01:56:19;;;;;;;5.83;1.90;;;16.00;64.40;;;;;;5087338;28;20611;-46
2023/02/24 01:59:14;;;;;;;3.93;2.30;;;16.10;64.70;;;;;;5077233;28;20196;-46
2023/02/24 02:01:47;;;;;;;4.50;1.83;;;16.10;64.40;;;;;;5074063;28;20213;-48
2023/02/24 02:04:44;;;;;;;3.10;1.63;;;16.00;64.30;;;;;;5072976;28;20217;-46
2023/02/24 02:07:21;;;;;;;3.97;1.97;;;16.00;64.40;;;;;;5067501;28;20233;-46
2023/02/24 02:10:02;;;;;;;3.47;1.50;;;16.10;64.40;;;;;;5052101;28;20262;-46
2023/02/24 02:12:42;;;;;;;4.43;1.60;;;16.10;64.40;;;;;;5080555;28;20237;-47
2023/02/24 02:15:19;;;;;;;6.53;2.10;;;16.10;64.40;;;;;;5068676;28;20210;-46
2023/02/24 02:18:26;;;;;;;6.20;1.70;;;16.00;64.30;;;;;;5089143;28;20205;-46
2023/02/24 02:21:35;;;;;;;3.33;1.43;;;16.00;64.30;;;;;;5060265;28;20622;-46
2023/02/24 02:24:37;;;;;;;4.00;2.20;;;16.00;64.30;;;;;;5062600;28;20534;-46
2023/02/24 02:27:40;;;;;;;5.03;1.80;;;16.00;64.20;;;;;;5077881;28;20215;-46
2023/02/24 02:30:42;;;;;;;2.30;1.53;;;16.00;64.30;;;;;;5056274;28;20758;-47
2023/02/24 02:33:43;;;;;;;5.03;1.80;;;16.00;64.40;;;;;;5086207;28;20242;-46
2023/02/24 02:36:54;;;;;;;4.93;2.13;;;16.00;64.40;;;;;;5082327;28;20236;-46
2023/02/24 02:39:51;;;;;;;3.67;1.80;;;16.00;64.30;;;;;;5071369;28;20220;-46
2023/02/24 02:42:35;;;;;;;5.27;2.47;;;16.00;64.40;;;;;;5083895;28;20220;-46
2023/02/24 02:45:33;;;;;;;4.10;2.17;;;16.00;64.40;;;;;;5087953;28;20227;-47
2023/02/24 02:48:35;;;;;;;4.67;2.30;;;16.00;64.40;;;;;;5029752;28;20239;-46
2023/02/24 02:51:17;;;;;;;3.50;1.60;;;16.00;64.40;;;;;;5085428;28;20247;-46
2023/02/24 02:53:48;;;;;;;5.87;2.23;;;16.00;64.40;;;;;;5078308;28;20196;-46
2023/02/24 02:56:29;;;;;;;4.53;1.70;;;16.00;64.40;;;;;;5083436;28;20196;-46
2023/02/24 02:59:02;;;;;;;5.53;1.93;;;16.00;64.40;;;;;;5071149;28;20185;-46
2023/02/24 03:01:54;;;;;;;2.43;1.60;;;16.00;64.40;;;;;;5084664;28;20655;-46
2023/02/24 03:04:30;;;;;;;2.67;2.40;;;16.00;64.40;;;;;;5084059;28;20820;-46
2023/02/24 03:07:02;;;;;;;3.53;2.33;;;16.00;64.40;;;;;;5074323;28;20195;-47
2023/02/24 03:09:39;;;;;;;5.60;2.00;;;16.00;64.30;;;;;;5085650;28;20516;-46
2023/02/24 03:12:13;;;;;;;3.77;1.80;;;16.00;64.30;;;;;;5066068;28;20196;-46
2023/02/24 03:14:52;;;;;;;4.03;1.60;;;16.00;64.30;;;;;;5090081;28;20181;-46
2023/02/24 03:17:28;;;;;;;4.50;2.00;;;16.00;64.30;;;;;;5075779;28;20181;-47
2023/02/24 03:20:12;;;;;;;4.07;2.13;;;15.90;64.20;;;;;;5054099;28;20197;-47
2023/02/24 03:22:58;;;;;;;3.93;1.70;;;15.90;64.20;;;;;;5084322;28;20205;-47
2023/02/24 03:25:37;;;;;;;4.37;1.97;;;16.00;64.30;;;;;;5083560;28;20244;-47
2023/02/24 03:28:49;;;;;;;5.27;2.23;;;15.90;64.30;;;;;;5052910;28;20196;-46
2023/02/24 03:31:38;;;;;;;5.00;2.17;;;15.90;64.30;;;;;;4986778;28;20246;-46
2023/02/24 03:34:33;;;;;;;4.17;1.80;;;15.90;64.30;;;;;;5059607;28;20272;-47
2023/02/24 03:37:02;;;;;;;3.63;1.50;;;15.90;64.30;;;;;;5061830;28;20206;-46
2023/02/24 03:39:32;;;;;;;3.40;1.60;;;15.90;64.30;;;;;;5050868;28;20202;-46
2023/02/24 03:42:21;;;;;;;4.43;1.67;;;15.90;64.40;;;;;;5041580;28;20206;-46
2023/02/24 03:44:57;;;;;;;4.90;2.00;;;15.90;64.30;;;;;;5055621;28;20808;-46
2023/02/24 03:47:41;;;;;;;3.80;1.53;;;15.90;64.30;;;;;;5068315;28;20281;-47
2023/02/24 03:50:16;;;;;;;4.27;1.93;;;15.90;64.40;;;;;;5061915;28;20240;-46
2023/02/24 03:53:03;;;;;;;3.40;1.90;;;15.90;64.30;;;;;;5050179;28;20268;-46
2023/02/24 03:56:02;;;;;;;5.60;2.27;;;15.90;64.30;;;;;;5068504;28;20677;-47
2023/02/24 03:59:11;;;;;;;3.93;1.87;;;15.90;64.30;;;;;;5052546;28;20200;-46
2023/02/24 04:02:07;;;;;;;3.93;2.27;;;15.90;64.30;;;;;;5056433;28;20229;-46
2023/02/24 04:04:52;;;;;;;5.77;1.57;;;15.90;64.40;;;;;;5067339;28;20189;-46
2023/02/24 04:07:50;;;;;;;4.03;1.53;;;15.90;64.30;;;;;;5066849;28;20212;-47
2023/02/24 04:10:32;;;;;;;3.97;1.70;;;15.90;64.30;;;;;;5064199;28;20232;-46
2023/02/24 04:13:23;;;;;;;3.70;1.30;;;15.80;64.30;;;;;;5041915;28;20367;-46
2023/02/24 04:16:27;;;;;;;4.43;1.60;;;15.90;64.40;;;;;;5059368;28;20209;-47
2023/02/24 04:19:12;;;;;;;2.90;1.90;;;15.80;64.30;;;;;;5074708;28;20251;-46
2023/02/24 04:21:50;;;;;;;4.40;1.67;;;15.90;64.50;;;;;;5047937;28;20194;-46
2023/02/24 04:24:33;;;;;;;3.70;2.03;;;15.80;64.40;;;;;;5047453;28;20213;-46
2023/02/24 04:27:08;;;;;;;3.43;1.67;;;15.90;64.40;;;;;;5055108;28;20280;-46
2023/02/24 04:29:55;;;;;;;3.17;1.50;;;15.90;64.40;;;;;;5075478;28;20410;-46
2023/02/24 04:32:27;;;;;;;2.10;1.30;;;15.90;64.40;;;;;;5055171;28;20673;-46
2023/02/24 04:35:08;;;;;;;3.37;1.70;;;15.90;64.40;;;;;;5085487;28;20234;-46
2023/02/24 04:37:43;;;;;;;2.50;1.53;;;15.90;64.30;;;;;;5055372;28;20197;-46
2023/02/24 04:40:17;;;;;;;4.27;1.80;;;15.80;64.30;;;;;;5065432;28;20611;-46
2023/02/24 04:42:52;;;;;;;2.73;1.60;;;15.80;64.30;;;;;;5058321;28;20208;-46
2023/02/24 04:45:28;;;;;;;2.77;1.47;;;15.90;64.30;;;;;;5058858;28;20185;-47
2023/02/24 04:48:11;;;;;;;2.67;1.50;;;15.90;64.30;;;;;;5047106;28;20289;-46
2023/02/24 04:50:44;;;;;;;4.40;1.60;;;15.80;64.20;;;;;;5081674;28;20273;-46
2023/02/24 04:53:16;;;;;;;4.63;1.50;;;15.80;64.20;;;;;;5067423;28;20281;-46
2023/02/24 04:55:48;;;;;;;4.93;1.50;;;15.90;64.30;;;;;;5066631;28;20203;-46
2023/02/24 04:58:26;;;;;;;3.13;1.60;;;15.80;64.20;;;;;;5084255;28;20583;-46
2023/02/24 05:00:56;;;;;;;2.23;1.33;;;15.90;64.30;;;;;;5059981;28;20216;-46
2023/02/24 05:03:28;;;;;;;3.40;1.50;;;15.80;64.30;;;;;;5077061;28;20552;-46
2023/02/24 05:06:02;;;;;;;2.63;1.30;;;15.80;64.20;;;;;;5079077;28;20200;-46
2023/02/24 05:08:33;;;;;;;3.87;1.77;;;15.90;64.30;;;;;;5068180;28;20212;-46
2023/02/24 05:11:06;;;;;;;2.90;1.10;;;15.80;64.20;;;;;;5084164;28;20209;-46
2023/02/24 05:13:37;;;;;;;2.77;1.20;;;15.80;64.20;;;;;;5069841;28;20201;-46
2023/02/24 05:16:07;;;;;;;2.17;1.20;;;15.80;64.20;;;;;;5084423;28;20193;-46
2023/02/24 05:18:39;;;;;;;3.97;1.60;;;15.80;64.20;;;;;;5068902;28;20262;-46
2023/02/24 05:24:07;;;;;;;1.87;1.30;;;15.80;64.20;;;;;;5071878;28;20209;-46
2023/02/24 05:26:40;;;;;;;2.50;1.40;;;15.80;64.20;;;;;;5086729;28;20584;-46
2023/02/24 05:29:11;;;;;;;3.00;1.43;;;15.80;64.10;;;;;;5066838;28;20680;-46
2023/02/24 05:31:43;;;;;;;2.10;1.20;;;15.80;64.10;;;;;;5062247;28;20238;-46
2023/02/24 05:34:16;;;;;;;3.27;1.57;;;15.80;64.10;;;;;;5069958;28;20197;-46
2023/02/24 05:36:47;;;;;;;3.33;1.40;;;15.80;64.10;;;;;;5079207;28;20220;-46
2023/02/24 05:39:19;;;;;;;3.67;1.83;;;15.80;64.10;;;;;;5081040;28;20542;-46
2023/02/24 05:41:48;;;;;;;4.97;1.73;;;15.80;64.10;;;;;;5088529;28;20204;-46
2023/02/24 05:44:22;;;;;;;3.23;1.53;;;15.80;64.20;;;;;;5066257;28;20259;-46
2023/02/24 05:46:59;;;;;;;2.93;1.50;;;15.80;64.10;;;;;;5056890;28;20544;-47
2023/02/24 05:49:42;;;;;;;3.73;1.20;;;15.80;64.10;;;;;;5070163;28;20208;-46
2023/02/24 05:52:13;;;;;;;2.33;1.60;;;15.80;64.10;;;;;;5069255;28;20185;-47
2023/02/24 05:54:44;;;;;;;2.13;1.30;;;15.80;64.20;;;;;;5059559;28;20271;-46
2023/02/24 05:57:26;;;;;;;4.00;1.50;;;15.80;64.10;;;;;;5067178;28;20189;-46
2023/02/24 05:59:54;;;;;;;2.57;1.60;;;15.70;64.00;;;;;;5058547;28;20182;-46
2023/02/24 06:02:26;;;;;;;3.83;1.47;;;15.80;64.10;;;;;;5082053;28;20202;-46
2023/02/24 06:04:59;;;;;;;2.03;1.10;;;15.70;64.10;;;;;;5083378;28;20197;-46
2023/02/24 06:07:33;;;;;;;2.43;1.13;;;15.70;64.00;;;;;;5089537;28;20545;-46
2023/02/24 06:10:09;;;;;;;2.97;1.70;;;15.70;63.90;;;;;;5086857;28;20216;-46
2023/02/24 06:12:39;;;;;;;3.63;1.40;;;15.80;64.00;;;;;;5081886;28;20213;-47
2023/02/24 06:15:09;;;;;;;4.20;1.50;;;15.70;63.90;;;;;;5086466;28;20550;-46
2023/02/24 06:17:42;;;;;;;3.70;1.30;;;15.70;63.80;;;;;;5077254;28;20481;-46
2023/02/24 06:20:14;;;;;;;3.03;1.40;;;15.70;63.80;;;;;;5086911;28;20200;-46
2023/02/24 06:22:47;;;;;;;3.43;1.43;;;15.70;63.70;;;;;;5081872;28;20208;-46
2023/02/24 06:25:23;;;;;;;1.73;1.20;;;15.70;63.70;;;;;;5080063;28;20220;-46
2023/02/24 06:28:00;;;;;;;2.30;1.20;;;15.80;63.80;;;;;;5069960;28;20193;-46
2023/02/24 06:30:31;;;;;;;3.50;1.53;;;15.80;63.70;;;;;;5086862;28;20236;-46
2023/02/24 06:33:04;;;;;;;2.20;1.73;;;15.70;63.70;;;;;;5089367;28;20295;-46
2023/02/24 06:35:34;;;;;;;3.03;2.07;;;15.70;63.70;;;;;;5066508;28;20766;-46
2023/02/24 06:38:03;;;;;;;4.47;1.77;;;15.70;63.60;;;;;;5084493;28;20213;-47
2023/02/24 06:40:37;;;;;;;3.37;1.30;;;15.70;63.60;;;;;;5089949;28;20197;-46
2023/02/24 06:43:09;;;;;;;2.97;1.30;;;15.70;63.60;;;;;;5088831;28;20209;-46
2023/02/24 06:45:36;;;;;;;4.37;1.40;;;15.70;63.80;;;;;;5068282;28;20190;-46
2023/02/24 06:48:03;;;;;;;2.83;1.27;;;15.70;63.50;;;;;;5078549;28;20198;-46
2023/02/24 06:50:29;;;;;;;3.73;1.40;;;15.70;63.50;;;;;;5089697;28;20217;-46
2023/02/24 06:52:59;;;;;;;2.07;1.10;;;15.70;63.50;;;;;;5081559;28;20240;-46
2023/02/24 06:55:27;;;;;;;3.30;1.80;;;15.70;63.50;;;;;;5083693;28;20193;-46
2023/02/24 06:58:03;;;;;;;4.23;1.30;;;15.70;63.50;;;;;;5085966;28;20190;-46
2023/02/24 07:00:38;;;;;;;4.37;1.53;;;15.70;63.50;;;;;;5069887;28;20584;-46
2023/02/24 07:03:13;;;;;;;3.63;1.40;;;15.70;63.50;;;;;;5076664;28;20199;-46
2023/02/24 07:05:48;;;;;;;2.97;1.27;;;15.70;63.50;;;;;;5092513;28;20189;-47
2023/02/24 07:08:23;;;;;;;3.17;1.23;;;15.70;63.50;;;;;;5080621;28;20199;-46
2023/02/24 07:10:52;;;;;;;5.23;1.90;;;15.70;63.40;;;;;;5083132;28;20386;-46
2023/02/24 07:13:19;;;;;;;4.20;1.63;;;15.70;63.40;;;;;;5079426;28;20251;-46
2023/02/24 07:15:48;;;;;;;3.03;1.07;;;15.70;63.40;;;;;;5082160;28;20569;-46
2023/02/24 07:18:17;;;;;;;3.60;1.40;;;15.70;63.30;;;;;;5092110;28;20655;-46
2023/02/24 07:20:45;;;;;;;1.93;1.57;;;15.70;64.00;;;;;;5074893;28;20374;-46
2023/02/24 07:23:14;;;;;;;5.30;1.60;;;15.70;63.90;;;;;;5081433;28;20524;-46
2023/02/24 07:25:45;;;;;;;3.53;1.73;;;15.70;63.30;;;;;;5077068;28;20228;-46
2023/02/24 07:28:17;;;;;;;4.17;1.30;;;15.70;63.30;;;;;;5081908;28;20201;-46
2023/02/24 07:30:44;;;;;;;2.87;1.90;;;15.70;63.30;;;;;;5088642;28;20237;-46
2023/02/24 07:33:13;;;;;;;2.67;1.53;;;15.70;63.30;;;;;;5082291;28;20205;-46
2023/02/24 07:35:41;;;;;;;3.60;1.30;;;15.70;63.30;;;;;;5079501;28;20196;-46
2023/02/24 07:38:08;;;;;;;4.67;1.57;;;15.70;63.30;;;;;;5068830;28;20201;-46
2023/02/24 07:40:35;;;;;;;6.10;1.83;;;15.70;63.20;;;;;;5089173;28;20634;-46
2023/02/24 07:43:05;;;;;;;2.50;1.20;;;15.70;63.10;;;;;;5087882;28;20208;-46
2023/02/24 07:45:33;;;;;;;3.00;1.30;;;15.70;63.20;;;;;;5087821;28;20197;-46
2023/02/24 07:48:00;;;;;;;2.93;1.40;;;15.70;63.20;;;;;;5087349;28;20197;-46
2023/02/24 07:50:31;;;;;;;2.87;1.47;;;15.70;63.20;;;;;;5075865;28;20686;-46
2023/02/24 07:52:59;;;;;;;2.13;1.20;;;15.70;63.10;;;;;;5078680;28;20186;-46
2023/02/24 07:55:30;;;;;;;3.33;1.30;;;15.70;63.10;;;;;;5087180;28;20204;-46
2023/02/24 07:57:56;;;;;;;3.03;1.40;;;15.70;63.10;;;;;;5083179;28;20205;-46
2023/02/24 08:00:27;;;;;;;3.83;1.50;;;15.70;63.10;;;;;;5067522;28;20225;-46
2023/02/24 08:02:55;;;;;;;3.87;1.43;;;15.70;63.00;;;;;;5083954;28;20255;-46
2023/02/24 08:05:23;;;;;;;4.90;1.93;;;15.70;63.00;;;;;;5088127;28;20193;-47
2023/02/24 08:07:50;;;;;;;3.07;1.40;;;15.60;63.00;;;;;;5074374;28;20200;-46
2023/02/24 08:10:23;;;;;;;1.80;1.30;;;15.70;63.00;;;;;;5084510;28;20523;-46
2023/02/24 08:12:55;;;;;;;2.23;1.53;;;15.70;63.00;;;;;;5068390;28;20213;-46
2023/02/24 08:15:24;;;;;;;3.97;1.83;;;15.70;63.00;;;;;;5086915;28;20204;-47
2023/02/24 08:17:58;;;;;;;3.33;1.33;;;15.70;63.00;;;;;;5075668;28;20201;-47
2023/02/24 08:20:28;;;;;;;4.13;1.40;;;15.70;62.90;;;;;;5073951;28;20228;-46
2023/02/24 08:22:56;;;;;;;3.00;1.53;;;15.70;62.90;;;;;;5077706;28;20193;-45
2023/02/24 08:25:37;;;;;;;3.57;1.60;;;15.70;62.90;;;;;;5071413;28;20220;-46
2023/02/24 08:28:10;;;;;;;3.73;1.67;;;15.70;62.90;;;;;;5077186;28;20604;-46
2023/02/24 08:30:45;;;;;;;4.57;1.37;;;15.70;62.80;;;;;;5085702;28;20236;-46
2023/02/24 08:33:19;;;;;;;3.17;1.40;;;15.70;62.80;;;;;;5085330;28;20204;-45
2023/02/24 08:35:51;;;;;;;3.57;1.10;;;15.60;62.70;;;;;;5082961;28;20231;-45
2023/02/24 08:38:20;;;;;;;4.07;1.60;;;15.70;62.80;;;;;;5075500;28;20244;-46
2023/02/24 08:40:50;;;;;;;2.33;1.40;;;15.60;62.70;;;;;;5067988;28;20540;-46
2023/02/24 08:43:33;;;;;;;4.27;1.77;;;15.70;62.70;;;;;;5070475;28;20211;-46
2023/02/24 08:46:12;;;;;;;3.90;1.60;;;15.70;62.70;;;;;;5087465;28;20208;-46
2023/02/24 08:48:45;;;;;;;4.57;1.67;;;15.70;62.70;;;;;;5076249;28;20752;-46
2023/02/24 08:51:21;;;;;;;6.47;1.53;;;15.70;62.70;;;;;;5075684;28;20228;-46
2023/02/24 08:53:52;;;;;;;3.07;1.20;;;15.70;62.80;;;;;;5080181;28;20190;-45
2023/02/24 08:56:23;;;;;;;3.47;1.40;;;15.70;63.20;;;;;;5083530;28;20272;-46
2023/02/24 08:58:55;;;;;;;5.17;1.77;;;15.70;63.30;;;;;;5062096;28;20201;-46
2023/02/24 09:01:33;;;;;;;5.23;1.63;;;15.70;63.30;;;;;;5066984;28;20214;-46
2023/02/24 09:04:10;;;;;;;7.17;1.60;;;15.70;63.20;;;;;;5071430;28;20220;-47
2023/02/24 09:06:46;;;;;;;5.73;1.87;;;15.70;63.30;;;;;;5065695;28;20675;-46
2023/02/24 09:09:21;;;;;;;4.53;1.70;;;15.70;63.20;;;;;;5079479;28;20651;-46
2023/02/24 09:11:55;;;;;;;4.50;1.63;;;15.70;63.10;;;;;;5081045;28;20221;-47
2023/02/24 09:14:37;;;;;;;4.43;1.87;;;15.70;63.00;;;;;;5062521;28;20426;-46
2023/02/24 09:17:09;;;;;;;4.03;1.50;;;15.70;63.00;;;;;;5071548;28;20196;-46
2023/02/24 09:22:30;;;;;;;2.60;1.07;;;15.70;62.90;;;;;;5068602;28;20262;-46
2023/02/24 09:25:22;;;;;;;4.40;1.50;;;15.70;62.90;;;;;;5069887;28;20209;-47
2023/02/24 09:28:06;;;;;;;3.60;1.20;;;15.70;62.90;;;;;;5083390;28;20272;-46
2023/02/24 09:30:49;;;;;;;4.57;1.73;;;15.70;62.80;;;;;;5079183;28;20237;-47
2023/02/24 09:33:20;;;;;;;5.73;1.30;;;15.70;62.80;;;;;;5070864;28;20200;-47
2023/02/24 09:36:09;;;;;;;2.83;1.30;;;15.70;62.70;;;;;;5069030;28;20627;-46
2023/02/24 09:41:30;;;;;;;4.30;1.53;;;15.70;62.60;;;;;;5069293;28;20202;-46
2023/02/24 09:44:17;;;;;;;3.80;0.90;;;15.70;63.30;;;;;;5070032;28;20197;-46
2023/02/24 09:47:07;;;;;;;4.00;1.37;;;15.70;62.50;;;;;;5069871;28;20197;-46
2023/02/24 09:49:57;;;;;;;2.93;1.10;;;15.70;62.50;;;;;;5066087;28;20205;-46
2023/02/24 09:52:40;;;;;;;4.53;1.73;;;15.70;62.70;;;;;;5066424;28;20550;-47
2023/02/24 09:55:26;;;;;;;3.47;1.37;;;15.70;62.50;;;;;;5068534;28;20233;-46
2023/02/24 09:58:22;;;;;;;4.43;1.37;;;15.70;62.40;;;;;;5069088;28;20251;-47
2023/02/24 10:01:19;;;;;;;4.37;1.73;;;15.70;62.40;;;;;;5060381;28;20225;-46
2023/02/24 10:04:03;;;;;;;3.83;1.63;;;15.70;62.40;;;;;;5069411;28;20668;-46
2023/02/24 10:06:50;;;;;;;3.93;1.80;;;15.70;62.40;;;;;;5072647;28;20631;-47
2023/02/24 10:09:20;;;;;;;4.23;1.83;;;15.70;62.40;;;;;;5070520;28;20238;-46
2023/02/24 10:11:54;;;;;;;3.93;1.27;;;15.70;62.40;;;;;;5069390;28;20221;-47
2023/02/24 10:14:51;;;;;;;3.83;1.43;;;15.70;62.30;;;;;;5060697;28;20578;-46
2023/02/24 10:17:38;;;;;;;2.53;1.43;;;15.70;62.20;;;;;;5062707;28;20196;-46
2023/02/24 10:20:38;;;;;;;3.80;1.40;;;15.70;62.30;;;;;;5041065;28;20220;-46
2023/02/24 10:23:33;;;;;;;3.80;1.47;;;15.70;62.20;;;;;;5053786;28;20206;-46
2023/02/24 10:26:20;;;;;;;3.07;1.30;;;15.70;62.20;;;;;;5066326;28;20202;-46
2023/02/24 10:28:58;;;;;;;3.30;1.30;;;15.70;62.20;;;;;;5065141;28;20673;-46
2023/02/24 10:31:46;;;;;;;3.17;1.23;;;15.70;62.30;;;;;;5056723;28;20235;-46
2023/02/24 10:34:30;;;;;;;4.30;1.40;;;15.70;62.20;;;;;;5070145;28;20200;-46
2023/02/24 10:37:09;;;;;;;3.77;1.40;;;15.70;62.20;;;;;;5051029;28;20213;-46
2023/02/24 10:40:08;;;;;;;2.93;1.27;;;15.70;62.10;;;;;;5057347;28;20194;-46
2023/02/24 10:42:53;;;;;;;3.73;1.20;;;15.70;62.20;;;;;;5051272;28;20288;-46
2023/02/24 10:45:26;;;;;;;5.47;1.70;;;15.70;62.20;;;;;;5055618;28;20546;-46
2023/02/24 10:48:26;;;;;;;2.37;1.10;;;15.70;62.00;;;;;;5059262;28;20744;-47
2023/02/24 10:51:18;;;;;;;3.37;1.10;;;15.70;62.00;;;;;;5072012;28;20195;-46
2023/02/24 10:54:21;;;;;;;3.07;1.00;;;15.70;62.00;;;;;;5071503;28;20251;-47
2023/02/24 10:56:54;;;;;;;3.10;1.10;;;15.70;62.00;;;;;;5050480;28;20217;-46
2023/02/24 10:59:57;;;;;;;6.80;1.53;;;15.70;62.00;;;;;;5047173;28;20201;-46
2023/02/24 11:02:55;;;;;;;3.10;1.50;;;15.70;61.90;;;;;;5048069;28;20266;-46
2023/02/24 11:05:36;;;;;;;3.40;1.40;;;15.70;62.00;;;;;;5055030;28;20194;-46
2023/02/24 11:08:53;;;;;;;2.93;1.30;;;15.70;62.00;;;;;;5066370;28;20224;-46
2023/02/24 11:17:13;;;;;;;2.80;1.30;;;15.70;61.90;;;;;;5071230;28;20209;-46
2023/02/24 11:17:25;;;;;;;3.50;1.30;;;15.70;61.90;;;;;;5069898;28;20815;-46
2023/02/24 11:20:14;;;;;;;5.17;1.20;;;15.70;62.00;;;;;;5038860;28;20255;-46
2023/02/24 11:22:45;;;;;;;3.23;1.47;;;15.70;61.80;;;;;;5056882;28;20213;-46
2023/02/24 11:25:21;;;;;;;2.33;1.20;;;15.70;61.80;;;;;;5036760;28;20213;-47
2023/02/24 11:27:55;;;;;;;2.20;0.90;;;15.70;61.80;;;;;;5069812;28;20196;-46
2023/02/24 11:30:55;;;;;;;2.33;1.00;;;15.70;61.90;;;;;;5045117;28;20585;-46
2023/02/24 11:34:18;;;;;;;4.33;1.27;;;15.70;61.70;;;;;;5080117;28;20209;-46
2023/02/24 11:37:25;;;;;;;2.97;1.60;;;15.70;61.70;;;;;;5035192;28;20561;-46
2023/02/24 11:40:10;;;;;;;1.53;1.20;;;15.70;61.70;;;;;;5086574;28;20603;-47
2023/02/24 11:42:59;;;;;;;3.20;1.70;;;15.70;61.70;;;;;;5081653;28;20193;-47
2023/02/24 11:45:48;;;;;;;4.93;1.67;;;15.70;61.70;;;;;;5073813;28;20215;-47
2023/02/24 11:48:24;;;;;;;1.47;1.13;;;15.70;61.70;;;;;;5064636;28;20649;-46
2023/02/24 11:51:10;;;;;;;3.63;1.20;;;15.70;61.70;;;;;;5079622;28;20197;-46
2023/02/24 11:54:01;;;;;;;2.80;1.60;;;15.70;61.60;;;;;;5078547;28;20194;-46
2023/02/24 11:56:44;;;;;;;2.33;1.07;;;15.70;61.70;;;;;;5065859;28;20606;-46
2023/02/24 12:00:05;;;;;;;3.10;1.40;;;15.70;61.60;;;;;;5052876;28;20540;-46
2023/02/24 12:02:52;;;;;;;5.60;1.63;;;15.70;61.50;;;;;;5049497;28;20684;-46
2023/02/24 12:05:26;;;;;;;2.40;1.30;;;15.70;61.50;;;;;;5073633;28;20225;-46
2023/02/24 12:08:25;;;;;;;3.83;1.10;;;15.70;61.50;;;;;;5046500;28;20198;-46
2023/02/24 12:11:04;;;;;;;5.53;1.43;;;15.70;61.40;;;;;;5029493;28;20194;-46
2023/02/24 12:14:12;;;;;;;2.80;1.10;;;15.70;61.40;;;;;;5077304;28;20264;-46
2023/02/24 12:16:55;;;;;;;3.77;1.63;;;15.70;61.40;;;;;;5004824;28;20223;-47
2023/02/24 12:19:46;;;;;;;2.43;1.20;;;15.70;61.50;;;;;;5052939;28;20201;-46
2023/02/24 12:22:17;;;;;;;2.73;1.40;;;15.70;61.30;;;;;;5048432;28;20190;-46
2023/02/24 12:24:50;;;;;;;3.13;1.80;;;15.70;61.40;;;;;;5080144;28;20220;-46
2023/02/24 12:27:47;;;;;;;3.27;1.07;;;15.70;61.50;;;;;;5065868;28;20559;-46
2023/02/24 12:30:56;;;;;;;3.00;1.50;;;15.70;61.40;;;;;;5064602;28;20742;-46
2023/02/24 12:34:02;;;;;;;1.73;1.10;;;15.70;61.30;;;;;;5063410;28;20209;-46
2023/02/24 12:36:54;;;;;;;4.03;1.63;;;15.70;61.50;;;;;;5071000;28;20204;-46
2023/02/24 12:39:37;;;;;;;2.43;1.13;;;15.70;61.40;;;;;;5080462;28;20249;-47
2023/02/24 12:42:33;;;;;;;3.07;1.50;;;15.70;61.40;;;;;;5079242;28;20537;-46
2023/02/24 12:45:07;;;;;;;3.33;1.47;;;15.70;61.30;;;;;;5080785;28;20236;-46
2023/02/24 12:47:41;;;;;;;2.30;1.47;;;15.80;61.50;;;;;;5080345;28;20520;-46
2023/02/24 12:51:07;;;;;;;5.70;1.73;;;15.70;61.40;;;;;;5074743;28;20208;-46
2023/02/24 12:53:55;;;;;;;2.00;1.10;;;15.70;61.30;;;;;;5054084;28;20236;-46
2023/02/24 12:57:01;;;;;;;3.07;1.80;;;15.80;61.50;;;;;;5060074;28;20202;-46
2023/02/24 12:59:36;;;;;;;3.90;1.50;;;15.80;61.50;;;;;;4998539;28;20366;-46
2023/02/24 13:02:42;;;;;;;4.33;1.40;;;15.70;62.10;;;;;;4980725;28;20277;-46
2023/02/24 13:05:36;;;;;;;2.50;1.40;;;15.70;61.50;;;;;;5058702;28;20201;-46
2023/02/24 13:08:34;;;;;;;2.67;1.20;;;15.70;61.50;;;;;;5081761;28;20195;-46
2023/02/24 13:11:47;;;;;;;3.47;1.40;;;15.70;61.50;;;;;;5074851;28;20254;-46
2023/02/24 13:14:35;;;;;;;2.27;1.10;;;15.70;61.50;;;;;;5080824;28;20201;-46
2023/02/24 13:17:22;;;;;;;2.33;1.30;;;15.70;61.50;;;;;;5064752;28;20201;-47
2023/02/24 13:20:14;;;;;;;3.43;1.60;;;15.70;61.40;;;;;;5075501;28;20195;-47
2023/02/24 13:22:47;;;;;;;2.37;1.37;;;15.70;61.40;;;;;;5068938;28;20300;-51
2023/02/24 13:25:36;;;;;;;3.00;1.53;;;15.70;61.40;;;;;;5059750;28;20290;-46
2023/02/24 13:28:29;;;;;;;3.43;1.30;;;15.70;61.40;;;;;;5051675;28;20193;-46
2023/02/24 13:31:25;;;;;;;3.20;1.43;;;15.70;61.40;;;;;;5069222;28;20233;-46
2023/02/24 13:34:52;;;;;;;3.33;1.50;;;15.70;61.40;;;;;;5083639;28;20209;-46
2023/02/24 13:37:35;;;;;;;3.90;1.30;;;15.70;61.40;;;;;;4982427;28;20215;-46
2023/02/24 13:40:27;;;;;;;4.63;1.90;;;15.70;61.50;;;;;;5003942;28;20208;-46
2023/02/24 13:43:04;;;;;;;3.53;1.40;;;15.70;61.50;;;;;;4998203;28;20321;-46
2023/02/24 13:45:56;;;;;;;2.40;1.53;;;15.70;61.50;;;;;;4998979;28;20227;-46
2023/02/24 13:49:04;;;;;;;3.10;1.50;;;15.70;61.60;;;;;;4996339;28;20224;-46
2023/02/24 13:52:06;;;;;;;4.13;1.50;;;15.70;61.50;;;;;;5000798;28;20207;-46
2023/02/24 13:55:07;;;;;;;2.73;1.30;;;15.70;61.60;;;;;;5016281;28;20217;-47
2023/02/24 13:58:18;;;;;;;2.80;1.43;;;15.70;61.60;;;;;;5067148;28;20255;-46
2023/02/24 14:01:07;;;;;;;2.13;1.20;;;15.70;61.60;;;;;;5068917;28;20205;-46
2023/02/24 14:04:21;;;;;;;2.10;1.00;;;15.70;61.60;;;;;;5085878;28;20228;-46
2023/02/24 14:07:02;;;;;;;4.50;1.63;;;15.70;61.70;;;;;;5089271;28;20185;-46
2023/02/24 14:09:43;;;;;;;3.57;1.80;;;15.70;61.70;;;;;;5071118;28;20615;-47